createdAt,value
2018-03-15T00:05:06.204Z,3.70
2018-03-15T00:10:16.521Z,3.60
2018-03-15T00:21:14.393Z,3.40
2018-03-15T00:26:41.563Z,3.30
2018-03-15T00:31:46.024Z,3.20
2018-03-15T00:36:50.099Z,3.30
2018-03-15T00:41:53.181Z,3.30
2018-03-15T00:46:56.061Z,3.20
2018-03-15T00:51:59.013Z,3.20
2018-03-15T01:02:50.666Z,3.00
2018-03-15T01:08:19.079Z,2.90
2018-03-15T01:13:23.500Z,2.90
2018-03-15T01:18:26.389Z,2.80
2018-03-15T01:23:29.292Z,2.80
2018-03-15T01:28:32.424Z,2.80
2018-03-15T01:33:35.207Z,2.70
2018-03-15T01:38:37.947Z,2.60
2018-03-15T01:43:40.699Z,2.60
2018-03-15T01:48:43.482Z,2.60
2018-03-15T01:53:46.224Z,2.50
2018-03-15T01:58:50.525Z,2.50
2018-03-15T02:03:53.338Z,2.50
2018-03-15T02:08:56.194Z,2.50
2018-03-15T02:13:59.019Z,2.50
2018-03-15T02:19:01.760Z,2.70
2018-03-15T02:24:05.315Z,2.70
2018-03-15T02:29:08.093Z,2.70
2018-03-15T02:34:14.918Z,2.80
2018-03-15T02:39:18.301Z,2.80
2018-03-15T02:44:21.876Z,2.80
2018-03-15T02:49:24.659Z,2.80
2018-03-15T02:54:27.404Z,2.80
2018-03-15T02:59:30.188Z,2.80
2018-03-15T03:04:33.787Z,2.80
2018-03-15T03:09:37.680Z,2.80
2018-03-15T03:14:40.562Z,2.80
2018-03-15T03:19:43.518Z,2.90
2018-03-15T03:24:46.400Z,3.00
2018-03-15T03:29:49.221Z,3.10
2018-03-15T03:34:52.001Z,3.00
2018-03-15T03:39:55.544Z,3.10
2018-03-15T03:44:59.348Z,3.00
2018-03-15T03:50:02.201Z,2.90
2018-03-15T03:55:05.824Z,2.90
2018-03-15T04:00:09.005Z,2.90
2018-03-15T04:05:12.763Z,2.80
2018-03-15T04:10:15.645Z,2.80
2018-03-15T04:15:18.561Z,2.70
2018-03-15T04:20:21.706Z,2.60
2018-03-15T04:25:24.666Z,2.40
2018-03-15T04:30:27.687Z,2.40
2018-03-15T04:35:30.590Z,2.30
2018-03-15T04:40:34.625Z,2.30
2018-03-15T04:45:37.506Z,2.30
2018-03-15T04:50:41.542Z,2.20
2018-03-15T04:55:44.676Z,2.20
2018-03-15T05:00:47.461Z,2.00
2018-03-15T05:05:50.321Z,2.00
2018-03-15T05:10:53.099Z,2.00
2018-03-15T05:15:56.622Z,2.20
2018-03-15T05:20:59.569Z,2.10
2018-03-15T05:26:02.542Z,2.20
2018-03-15T05:31:05.525Z,2.10
2018-03-15T05:36:09.042Z,2.00
2018-03-15T05:41:11.844Z,1.90
2018-03-15T05:46:14.690Z,2.00
2018-03-15T05:51:17.560Z,2.00
2018-03-15T05:56:20.329Z,2.00
2018-03-15T06:01:24.081Z,2.00
2018-03-15T06:06:27.026Z,2.00
2018-03-15T06:11:29.775Z,2.00
2018-03-15T06:16:32.578Z,2.00
2018-03-15T06:21:35.372Z,2.20
2018-03-15T06:26:38.107Z,2.40
2018-03-15T06:31:41.064Z,2.50
2018-03-15T06:36:43.822Z,2.70
2018-03-15T06:41:46.642Z,2.80
2018-03-15T06:46:50.318Z,3.30
2018-03-15T06:51:53.223Z,3.20
2018-03-15T06:56:55.978Z,3.50
2018-03-15T07:01:58.798Z,4.00
2018-03-15T07:07:02.195Z,4.30
2018-03-15T07:12:04.989Z,4.70
2018-03-15T07:17:07.776Z,5.00
2018-03-15T07:22:11.417Z,5.50
2018-03-15T07:27:14.196Z,5.40
2018-03-15T07:32:17.955Z,6.00
2018-03-15T07:37:20.733Z,5.90
2018-03-15T07:42:23.528Z,6.20
2018-03-15T07:47:26.337Z,6.40
2018-03-15T07:52:29.127Z,6.60
2018-03-15T07:57:31.921Z,6.70
2018-03-15T08:02:34.724Z,7.00
2018-03-15T08:07:37.477Z,7.30
2018-03-15T08:12:41.138Z,7.60
2018-03-15T08:17:43.928Z,7.60
2018-03-15T08:22:46.696Z,7.90
2018-03-15T08:27:49.494Z,8.00
2018-03-15T08:32:52.245Z,8.10
2018-03-15T08:37:55.088Z,8.10
2018-03-15T08:42:57.893Z,8.20
2018-03-15T08:48:00.697Z,8.60
2018-03-15T08:53:04.261Z,9.50
2018-03-15T08:58:07.018Z,9.40
2018-03-15T09:03:10.631Z,9.70
2018-03-15T09:08:14.196Z,9.60
2018-03-15T09:13:17.046Z,9.60
2018-03-15T09:18:19.827Z,9.60
2018-03-15T09:23:22.592Z,9.90
2018-03-15T09:28:25.363Z,10.30
2018-03-15T09:33:28.917Z,10.50
2018-03-15T09:38:31.881Z,10.40
2018-03-15T09:43:34.663Z,10.60
2018-03-15T09:48:37.456Z,10.60
2018-03-15T09:53:41.132Z,10.80
2018-03-15T09:58:43.972Z,10.80
2018-03-15T10:03:47.536Z,11.00
2018-03-15T10:08:50.403Z,11.00
2018-03-15T10:13:53.252Z,11.00
2018-03-15T10:18:56.094Z,11.40
2018-03-15T10:23:59.651Z,11.80
2018-03-15T10:29:02.480Z,11.70
2018-03-15T10:34:06.281Z,12.10
2018-03-15T10:39:09.084Z,12.10
2018-03-15T10:44:11.878Z,12.40
2018-03-15T10:49:14.668Z,12.80
2018-03-15T10:54:17.569Z,13.30
2018-03-15T10:59:20.334Z,13.70
2018-03-15T11:04:28.901Z,13.80
2018-03-15T11:09:31.715Z,13.50
2018-03-15T11:14:34.502Z,13.10
2018-03-15T11:19:37.326Z,13.00
2018-03-15T11:24:40.106Z,13.40
2018-03-15T11:29:42.928Z,13.80
2018-03-15T11:34:45.710Z,13.90
2018-03-15T11:39:48.513Z,14.10
2018-03-15T11:44:51.296Z,14.10
2018-03-15T11:49:54.055Z,14.60
2018-03-15T11:54:57.660Z,14.00
2018-03-15T12:00:01.232Z,13.90
2018-03-15T12:05:04.034Z,13.80
2018-03-15T12:10:06.922Z,13.70
2018-03-15T12:15:09.766Z,13.50
2018-03-15T12:20:12.554Z,13.40
2018-03-15T12:25:15.343Z,13.50
2018-03-15T12:30:18.141Z,13.40
2018-03-15T12:35:20.948Z,13.50
2018-03-15T12:40:23.720Z,13.70
2018-03-15T12:45:26.503Z,13.70
2018-03-15T12:50:30.059Z,14.00
2018-03-15T12:55:34.553Z,14.00
2018-03-15T13:00:39.155Z,14.00
2018-03-15T13:05:41.948Z,13.90
2018-03-15T13:10:45.746Z,13.90
2018-03-15T13:15:49.070Z,13.70
2018-03-15T13:20:52.351Z,13.80
2018-03-15T13:25:55.285Z,13.80
2018-03-15T13:30:58.484Z,14.10
2018-03-15T13:36:01.243Z,14.40
2018-03-15T13:41:04.021Z,14.40
2018-03-15T13:46:06.774Z,14.10
2018-03-15T13:51:09.557Z,14.20
2018-03-15T13:56:12.365Z,13.70
2018-03-15T14:01:15.162Z,13.60
2018-03-15T14:06:18.002Z,13.50
2018-03-15T14:11:20.816Z,13.60
2018-03-15T14:16:23.584Z,13.50
2018-03-15T14:21:26.380Z,13.40
2018-03-15T14:26:29.259Z,13.30
2018-03-15T14:31:32.064Z,13.20
2018-03-15T14:36:34.913Z,13.10
2018-03-15T14:41:37.671Z,13.10
2018-03-15T14:46:40.458Z,13.00
2018-03-15T14:51:43.495Z,12.80
2018-03-15T14:56:46.251Z,12.90
2018-03-15T15:01:49.783Z,12.90
2018-03-15T15:06:52.612Z,12.90
2018-03-15T15:11:55.557Z,12.90
2018-03-15T15:16:59.163Z,13.00
2018-03-15T15:22:01.956Z,12.90
2018-03-15T15:27:04.762Z,12.90
2018-03-15T15:32:07.666Z,13.00
2018-03-15T15:37:11.221Z,12.90
2018-03-15T15:42:14.068Z,12.80
2018-03-15T15:47:16.878Z,12.80
2018-03-15T15:52:19.864Z,13.00
2018-03-15T15:57:22.691Z,12.90
2018-03-15T16:02:26.868Z,13.00
2018-03-15T16:07:31.194Z,12.90
2018-03-15T16:12:34.081Z,12.90
2018-03-15T16:17:41.008Z,12.90
2018-03-15T16:22:43.779Z,12.90
2018-03-15T16:27:48.357Z,12.80
2018-03-15T16:32:52.128Z,12.60
2018-03-15T16:37:56.623Z,12.70
2018-03-15T16:43:01.553Z,12.60
2018-03-15T16:48:09.922Z,12.50
2018-03-15T16:53:13.686Z,12.40
2018-03-15T16:58:18.482Z,12.30
2018-03-15T17:03:21.750Z,12.10
2018-03-15T17:08:45.935Z,12.00
2018-03-15T17:13:49.072Z,12.00
2018-03-15T17:18:51.957Z,12.00
2018-03-15T17:23:56.222Z,12.00
2018-03-15T17:29:00.220Z,11.90
2018-03-15T17:34:05.340Z,12.00
2018-03-15T17:39:08.929Z,11.90
2018-03-15T17:44:11.777Z,11.80
2018-03-15T17:49:15.438Z,11.70
2018-03-15T17:54:41.077Z,11.70
2018-03-15T17:59:47.022Z,11.70
2018-03-15T18:04:49.870Z,11.60
2018-03-15T18:09:52.642Z,11.70
2018-03-15T18:14:55.413Z,11.70
2018-03-15T18:19:58.163Z,11.60
2018-03-15T18:25:00.961Z,11.60
2018-03-15T18:30:03.761Z,11.40
2018-03-15T18:35:06.596Z,11.40
2018-03-15T18:40:09.634Z,11.20
2018-03-15T18:45:14.535Z,11.20
2018-03-15T18:50:17.370Z,11.00
2018-03-15T18:55:21.280Z,10.30
2018-03-15T19:00:24.593Z,10.00
2018-03-15T19:05:27.912Z,9.90
2018-03-15T19:10:31.535Z,9.80
2018-03-15T19:15:34.334Z,9.80
2018-03-15T19:20:37.133Z,9.80
2018-03-15T19:25:39.906Z,9.70
2018-03-15T19:30:42.718Z,9.70
2018-03-15T19:35:45.481Z,9.70
2018-03-15T19:40:48.283Z,9.70
2018-03-15T19:45:51.089Z,9.70
2018-03-15T19:50:54.638Z,9.50
2018-03-15T19:55:57.435Z,9.40
2018-03-15T20:01:00.199Z,9.50
2018-03-15T20:06:03.752Z,9.30
2018-03-15T20:11:06.547Z,9.20
2018-03-15T20:16:16.740Z,9.20
2018-03-15T20:21:19.492Z,9.20
2018-03-15T20:26:23.809Z,9.20
2018-03-15T20:31:26.661Z,9.10
2018-03-15T20:36:29.454Z,9.20
2018-03-15T20:41:32.465Z,9.10
2018-03-15T20:46:41.290Z,9.10
2018-03-15T20:51:44.053Z,9.20
2018-03-15T20:56:46.796Z,9.20
2018-03-15T21:01:49.598Z,9.20
2018-03-15T21:06:52.357Z,9.20
2018-03-15T21:11:56.751Z,9.20
2018-03-15T21:16:59.595Z,9.20
2018-03-15T21:22:03.145Z,9.20
2018-03-15T21:27:06.207Z,9.10
2018-03-15T21:32:09.730Z,9.10
2018-03-15T21:37:13.282Z,9.10
2018-03-15T21:42:16.046Z,9.00
2018-03-15T21:47:19.580Z,9.10
2018-03-15T21:52:22.360Z,9.00
2018-03-15T21:57:25.982Z,8.90
2018-03-15T22:02:29.602Z,8.70
2018-03-15T22:07:33.671Z,8.70
2018-03-15T22:12:37.797Z,8.60
2018-03-15T22:17:40.700Z,8.60
2018-03-15T22:22:44.246Z,8.40
2018-03-15T22:27:47.928Z,8.40
2018-03-15T22:32:51.318Z,8.50
2018-03-15T22:37:56.455Z,8.50
2018-03-15T22:43:00.617Z,8.50
2018-03-15T22:48:03.454Z,8.50
2018-03-15T22:53:06.364Z,8.60
2018-03-15T22:58:09.134Z,8.60
2018-03-15T23:03:12.119Z,8.50
2018-03-15T23:08:14.908Z,8.50
2018-03-15T23:13:18.447Z,8.60
2018-03-15T23:18:21.229Z,8.50
2018-03-15T23:23:23.969Z,8.50
2018-03-15T23:28:28.116Z,8.60
2018-03-15T23:33:31.107Z,8.50
2018-03-15T23:38:33.861Z,8.50
2018-03-15T23:43:36.673Z,8.50
2018-03-15T23:48:39.429Z,8.50
2018-03-15T23:53:42.984Z,8.50
2018-03-15T23:58:45.745Z,8.50
